Time;durP1;ratioP1;P1;durP2;ratioP2;P2;SDS_P1;SDS_P2;PMS_P1;PMS_P2;Temp;Humidity;BMP_temperature;BMP_pressure;BME280_temperature;BME280_humidity;BME280_pressure;Samples;Min_cycle;Max_cycle;Signal;HPM_P1;HPM_P2
2022/05/23 00:01:35;;;;;;;7.22;1.58;;;15.80;99.90;;;;;;5004578;28;20046;-67
2022/05/23 00:04:00;;;;;;;3.42;1.48;;;15.80;99.90;;;;;;5019138;28;20041;-66
2022/05/23 00:06:26;;;;;;;4.60;1.60;;;15.80;99.90;;;;;;5003172;28;20026;-66
2022/05/23 00:08:52;;;;;;;4.47;1.33;;;15.80;99.90;;;;;;5004256;28;20034;-67
2022/05/23 00:11:19;;;;;;;5.43;1.50;;;15.80;99.90;;;;;;5004418;28;20018;-66
2022/05/23 00:13:46;;;;;;;6.75;2.08;;;15.80;99.90;;;;;;5019176;28;20022;-66
2022/05/23 00:16:19;;;;;;;7.32;1.92;;;15.70;99.90;;;;;;5001533;28;20034;-67
2022/05/23 00:18:44;;;;;;;7.35;1.77;;;15.70;99.90;;;;;;5019419;28;20022;-66
2022/05/23 00:21:10;;;;;;;7.13;2.10;;;15.60;99.90;;;;;;5003827;28;20092;-66
2022/05/23 00:23:36;;;;;;;7.88;2.38;;;15.60;99.90;;;;;;5002604;28;20037;-66
2022/05/23 00:26:02;;;;;;;6.65;1.70;;;15.60;99.90;;;;;;5003587;28;20038;-67
2022/05/23 00:28:27;;;;;;;5.75;2.10;;;15.60;99.90;;;;;;5003888;28;20030;-67
2022/05/23 00:30:53;;;;;;;10.75;3.70;;;15.50;99.90;;;;;;5019193;28;20029;-66
2022/05/23 00:36:04;;;;;;;2.88;1.95;;;15.40;99.90;;;;;;5015982;28;20309;-67
2022/05/23 00:38:30;;;;;;;6.25;2.47;;;15.40;99.90;;;;;;5018775;28;20057;-67
2022/05/23 00:44:24;;;;;;;3.75;2.33;;;15.40;99.90;;;;;;4992164;28;20033;-67
2022/05/23 00:47:01;;;;;;;5.00;1.90;;;15.40;99.90;;;;;;5003877;28;20061;-66
2022/05/23 00:49:36;;;;;;;3.22;2.22;;;15.40;99.90;;;;;;5004032;28;20097;-67
2022/05/23 00:52:06;;;;;;;4.93;2.10;;;15.40;99.90;;;;;;5003931;28;20190;-66
2022/05/23 00:54:38;;;;;;;4.70;2.80;;;15.30;99.90;;;;;;5003716;28;20042;-67
2022/05/23 00:57:05;;;;;;;5.18;1.90;;;15.30;99.90;;;;;;5002633;28;20089;-66
2022/05/23 00:59:33;;;;;;;4.20;1.92;;;15.30;99.90;;;;;;5004019;28;20030;-66
2022/05/23 01:02:02;;;;;;;3.28;2.22;;;15.30;99.90;;;;;;5002841;28;20285;-66
2022/05/23 01:04:30;;;;;;;4.22;2.03;;;15.20;99.90;;;;;;5003297;28;20026;-66
2022/05/23 01:06:56;;;;;;;3.28;1.63;;;15.20;99.90;;;;;;5003730;28;20220;-66
2022/05/23 01:09:25;;;;;;;3.85;1.60;;;15.10;99.90;;;;;;5003635;28;20130;-67
2022/05/23 01:11:53;;;;;;;3.83;1.30;;;15.10;99.90;;;;;;5003792;28;20022;-67
2022/05/23 01:14:20;;;;;;;4.38;0.95;;;15.00;99.90;;;;;;5001897;28;20018;-68
2022/05/23 01:16:46;;;;;;;3.08;1.20;;;14.90;99.90;;;;;;5001445;28;20332;-67
2022/05/23 01:19:12;;;;;;;3.80;1.17;;;14.80;99.90;;;;;;5002188;28;20030;-67
2022/05/23 01:21:53;;;;;;;3.90;1.20;;;14.80;99.90;;;;;;5002246;28;20037;-68
2022/05/23 01:24:45;;;;;;;5.95;1.30;;;14.70;99.90;;;;;;5002570;28;20094;-67
2022/05/23 01:27:11;;;;;;;3.13;1.10;;;14.80;99.90;;;;;;4989205;28;20348;-67
2022/05/23 01:29:42;;;;;;;2.17;1.30;;;14.80;99.90;;;;;;5002750;28;20030;-67
2022/05/23 01:32:08;;;;;;;4.78;1.10;;;14.90;99.90;;;;;;5003705;28;20029;-67
2022/05/23 01:34:33;;;;;;;2.97;1.00;;;14.90;99.90;;;;;;5003146;28;20053;-67
2022/05/23 01:37:00;;;;;;;4.72;1.20;;;14.90;99.90;;;;;;5004315;28;20064;-68
2022/05/23 01:39:26;;;;;;;4.47;1.20;;;14.90;99.90;;;;;;5005930;28;20128;-67
2022/05/23 01:41:51;;;;;;;5.72;1.40;;;14.80;99.90;;;;;;5007069;28;20249;-67
2022/05/23 01:44:17;;;;;;;5.38;1.35;;;14.80;99.90;;;;;;5005857;28;20033;-67
2022/05/23 01:46:43;;;;;;;4.97;1.40;;;14.80;99.90;;;;;;5005840;28;20037;-68
2022/05/23 01:49:08;;;;;;;5.28;1.40;;;14.80;99.90;;;;;;5006663;28;20069;-67
2022/05/23 01:51:34;;;;;;;5.82;1.60;;;14.80;99.90;;;;;;5006864;28;20097;-67
2022/05/23 01:54:00;;;;;;;3.70;1.50;;;14.80;99.90;;;;;;5006726;28;20022;-67
2022/05/23 01:56:26;;;;;;;3.80;1.40;;;14.80;99.90;;;;;;5005584;28;20038;-67
2022/05/23 02:01:37;;;;;;;8.88;1.58;;;14.80;99.90;;;;;;5005239;28;20065;-67
2022/05/23 02:04:03;;;;;;;4.57;1.70;;;14.70;99.90;;;;;;5006188;28;20034;-67
2022/05/23 02:06:29;;;;;;;5.22;1.27;;;14.70;99.90;;;;;;5006452;28;20045;-68
2022/05/23 02:08:55;;;;;;;5.85;1.73;;;14.70;99.90;;;;;;4989258;28;20018;-67
2022/05/23 02:11:20;;;;;;;7.55;1.50;;;14.70;99.90;;;;;;5021770;28;20261;-68
2022/05/23 02:13:46;;;;;;;8.90;1.73;;;14.70;99.90;;;;;;5006467;28;20033;-67
2022/05/23 02:16:12;;;;;;;6.88;1.50;;;14.60;99.90;;;;;;5005490;28;20030;-67
2022/05/23 02:18:38;;;;;;;5.05;1.67;;;14.60;99.90;;;;;;5004474;28;20402;-67
2022/05/23 02:21:04;;;;;;;5.85;1.58;;;14.60;99.90;;;;;;5005258;28;20030;-67
2022/05/23 02:23:29;;;;;;;5.95;1.33;;;14.60;99.90;;;;;;5006102;28;20306;-67
2022/05/23 02:25:55;;;;;;;3.75;1.13;;;14.60;99.90;;;;;;5006004;28;20026;-67
2022/05/23 02:28:21;;;;;;;12.55;2.03;;;14.60;99.90;;;;;;5005863;28;20031;-68
2022/05/23 02:30:48;;;;;;;7.75;1.67;;;14.60;99.90;;;;;;5005118;28;20065;-68
2022/05/23 02:33:15;;;;;;;7.30;1.83;;;14.60;99.90;;;;;;5006051;28;20029;-67
2022/05/23 02:35:41;;;;;;;8.93;1.60;;;14.60;99.90;;;;;;5004707;28;20077;-68
2022/05/23 02:38:07;;;;;;;8.50;1.77;;;14.70;99.90;;;;;;5004460;28;20053;-67
2022/05/23 02:40:33;;;;;;;8.75;1.75;;;14.70;99.90;;;;;;5005987;28;20026;-67
2022/05/23 02:42:58;;;;;;;7.05;2.15;;;14.70;99.90;;;;;;5004914;28;20069;-67
2022/05/23 02:45:24;;;;;;;10.75;2.10;;;14.70;99.90;;;;;;5004648;28;20041;-67
2022/05/23 02:47:51;;;;;;;8.52;2.38;;;14.70;99.90;;;;;;5005183;28;20401;-68
2022/05/23 02:50:17;;;;;;;8.80;2.28;;;14.60;99.90;;;;;;5005434;28;20033;-67
2022/05/23 02:52:44;;;;;;;10.73;2.72;;;14.70;99.90;;;;;;5004555;28;20023;-67
2022/05/23 02:55:10;;;;;;;7.13;2.25;;;14.60;99.90;;;;;;5005712;28;20030;-67
2022/05/23 02:57:37;;;;;;;7.95;2.47;;;14.60;99.90;;;;;;5005707;28;20026;-67
2022/05/23 03:00:06;;;;;;;12.07;1.92;;;14.60;99.90;;;;;;5021007;28;20030;-67
2022/05/23 03:05:18;;;;;;;9.70;1.80;;;14.60;99.90;;;;;;5017613;28;20202;-67
2022/05/23 03:07:43;;;;;;;11.50;2.00;;;14.60;99.90;;;;;;5005130;28;20125;-68
2022/05/23 03:10:09;;;;;;;9.90;1.75;;;14.70;99.90;;;;;;5005513;28;20081;-67
2022/05/23 03:12:35;;;;;;;7.57;1.80;;;14.80;99.90;;;;;;5005323;28;20243;-67
2022/05/23 03:15:03;;;;;;;9.23;2.03;;;14.70;99.90;;;;;;4988138;28;20028;-67
2022/05/23 03:17:28;;;;;;;10.13;1.85;;;14.70;99.90;;;;;;5005187;28;20029;-67
2022/05/23 03:19:54;;;;;;;11.65;2.17;;;14.70;99.90;;;;;;5003780;28;20042;-67
2022/05/23 03:27:51;;;;;;;9.60;1.80;;;14.60;99.90;;;;;;5017858;28;20026;-67
2022/05/23 03:30:17;;;;;;;11.93;1.88;;;14.50;99.90;;;;;;5004963;28;20041;-67
2022/05/23 03:32:43;;;;;;;9.10;2.35;;;14.50;99.90;;;;;;5005004;28;20089;-67
2022/05/23 03:35:08;;;;;;;13.13;1.88;;;14.40;99.90;;;;;;5004524;28;20041;-67
2022/05/23 03:37:35;;;;;;;12.52;1.83;;;14.40;99.90;;;;;;5004856;28;20250;-67
2022/05/23 03:40:03;;;;;;;8.40;1.85;;;14.40;99.90;;;;;;4987665;28;20022;-67
2022/05/23 03:42:29;;;;;;;13.63;2.10;;;14.50;99.90;;;;;;4987791;28;20186;-67
2022/05/23 03:44:55;;;;;;;9.00;2.40;;;14.50;99.90;;;;;;5004522;28;20026;-67
2022/05/23 03:47:21;;;;;;;9.00;2.47;;;14.50;99.90;;;;;;5003515;28;20026;-67
2022/05/23 03:49:47;;;;;;;9.80;1.65;;;14.50;99.90;;;;;;5004669;28;20249;-67
2022/05/23 03:52:13;;;;;;;10.40;2.13;;;14.50;99.90;;;;;;5019666;28;20022;-68
2022/05/23 03:54:38;;;;;;;9.65;2.03;;;14.50;99.90;;;;;;5004330;28;20049;-67
2022/05/23 03:57:04;;;;;;;9.38;1.98;;;14.50;99.90;;;;;;5004551;28;20407;-67
2022/05/23 03:59:30;;;;;;;10.63;2.20;;;14.50;99.90;;;;;;5003983;28;20320;-68
2022/05/23 04:01:57;;;;;;;9.50;2.45;;;14.50;99.90;;;;;;5004164;28;20054;-67
2022/05/23 04:04:26;;;;;;;7.25;2.08;;;14.50;99.90;;;;;;5003919;28;20030;-67
2022/05/23 04:06:53;;;;;;;11.70;2.00;;;14.50;99.90;;;;;;4987153;28;20038;-67
2022/05/23 04:09:18;;;;;;;7.88;1.90;;;14.50;99.90;;;;;;5003298;28;20027;-67
2022/05/23 04:11:45;;;;;;;10.98;1.63;;;14.50;99.90;;;;;;5003195;28;20032;-67
2022/05/23 04:14:11;;;;;;;9.27;1.70;;;14.50;99.90;;;;;;5004108;28;20102;-67
2022/05/23 04:16:37;;;;;;;12.02;2.08;;;14.40;99.90;;;;;;5004333;28;20030;-67
2022/05/23 04:19:05;;;;;;;6.78;1.52;;;14.40;99.90;;;;;;5004170;28;20073;-68
2022/05/23 04:21:31;;;;;;;9.40;1.83;;;14.40;99.90;;;;;;5002214;28;20049;-67
2022/05/23 04:23:57;;;;;;;13.45;2.53;;;14.40;99.90;;;;;;5003063;28;20022;-68
2022/05/23 04:26:23;;;;;;;13.57;1.80;;;14.40;99.90;;;;;;5003090;28;20034;-67
2022/05/23 04:28:49;;;;;;;8.82;1.83;;;14.40;99.90;;;;;;5003982;28;20022;-67
2022/05/23 04:31:15;;;;;;;9.43;2.00;;;14.40;99.90;;;;;;5004220;28;20097;-67
2022/05/23 04:36:26;;;;;;;10.40;2.28;;;14.40;99.90;;;;;;5003011;28;20224;-67
2022/05/23 04:38:52;;;;;;;12.57;2.10;;;14.30;99.90;;;;;;5004008;28;20053;-67
2022/05/23 04:41:17;;;;;;;13.05;2.25;;;14.30;99.90;;;;;;5004036;28;20057;-67
2022/05/23 04:43:43;;;;;;;8.65;1.73;;;14.30;99.90;;;;;;5002787;28;20044;-67
2022/05/23 04:46:09;;;;;;;11.55;2.30;;;14.30;99.90;;;;;;5002595;28;20140;-68
2022/05/23 04:51:20;;;;;;;16.30;3.05;;;14.30;99.90;;;;;;5016461;28;20026;-67
2022/05/23 04:53:53;;;;;;;11.60;2.28;;;14.30;99.90;;;;;;5003847;28;20057;-67
2022/05/23 04:56:20;;;;;;;12.82;2.58;;;14.30;99.90;;;;;;5002717;28;20022;-67
2022/05/23 04:58:45;;;;;;;14.25;2.70;;;14.30;99.90;;;;;;5003777;28;20077;-67
2022/05/23 05:01:11;;;;;;;14.13;2.78;;;14.30;99.90;;;;;;5003363;28;20062;-67
2022/05/23 05:03:37;;;;;;;12.43;2.97;;;14.30;99.90;;;;;;4986442;28;20305;-67
2022/05/23 05:06:03;;;;;;;20.77;3.55;;;14.30;99.90;;;;;;5003529;28;20030;-67
2022/05/23 05:08:29;;;;;;;15.05;2.97;;;14.30;99.90;;;;;;5003694;28;20069;-68
2022/05/23 05:10:57;;;;;;;15.95;2.78;;;14.30;99.90;;;;;;5003623;28;20316;-67
2022/05/23 05:13:24;;;;;;;10.27;2.30;;;14.20;99.90;;;;;;5006985;28;20324;-67
2022/05/23 05:15:50;;;;;;;16.77;2.92;;;14.20;99.90;;;;;;5007381;28;20045;-67
2022/05/23 05:18:15;;;;;;;17.08;3.13;;;14.20;99.90;;;;;;5006596;28;20357;-67
2022/05/23 05:20:41;;;;;;;14.65;3.28;;;14.20;99.90;;;;;;5005404;28;20221;-67
2022/05/23 05:23:07;;;;;;;7.90;2.50;;;14.20;99.90;;;;;;5006190;28;20327;-67
2022/05/23 05:25:33;;;;;;;11.60;3.03;;;14.20;99.90;;;;;;5007208;28;20027;-67
2022/05/23 05:27:58;;;;;;;14.70;3.05;;;14.20;99.90;;;;;;5006119;28;20030;-67
2022/05/23 05:30:24;;;;;;;13.93;3.40;;;14.20;99.90;;;;;;5007137;28;20022;-67
2022/05/23 05:33:13;;;;;;;15.50;3.70;;;14.20;99.90;;;;;;5007070;28;20029;-67
2022/05/23 05:36:01;;;;;;;20.33;3.53;;;14.20;99.90;;;;;;5006084;28;20037;-67
2022/05/23 05:38:37;;;;;;;17.52;3.33;;;14.30;99.90;;;;;;5006343;28;20213;-67
2022/05/23 05:41:14;;;;;;;28.05;4.28;;;14.30;99.90;;;;;;5006851;28;20026;-67
2022/05/23 05:43:46;;;;;;;13.43;3.20;;;14.40;99.90;;;;;;5007085;28;20023;-67
2022/05/23 05:46:20;;;;;;;14.27;2.88;;;14.40;99.90;;;;;;5005912;28;20025;-67
2022/05/23 05:48:47;;;;;;;18.55;2.97;;;14.50;99.90;;;;;;5006568;28;20093;-67
2022/05/23 05:51:16;;;;;;;16.60;3.28;;;14.60;99.90;;;;;;5005595;28;20041;-67
2022/05/23 05:53:43;;;;;;;16.85;3.40;;;14.60;99.90;;;;;;5005384;28;20025;-67
2022/05/23 05:56:10;;;;;;;21.08;3.33;;;14.60;99.90;;;;;;5005268;28;20038;-68
2022/05/23 05:58:37;;;;;;;13.40;3.00;;;14.60;99.90;;;;;;5005098;28;20293;-68
2022/05/23 06:01:03;;;;;;;13.52;3.40;;;14.70;99.90;;;;;;5004534;28;20278;-68
2022/05/23 06:03:28;;;;;;;16.60;3.08;;;14.80;99.90;;;;;;5006184;28;20085;-67
2022/05/23 06:11:26;;;;;;;13.50;3.35;;;15.10;99.90;;;;;;5004808;28;20023;-68
2022/05/23 06:13:55;;;;;;;12.95;3.05;;;15.20;99.90;;;;;;5004930;28;20025;-68
2022/05/23 06:16:22;;;;;;;14.57;2.72;;;15.30;99.40;;;;;;5005141;28;20024;-68
2022/05/23 06:18:48;;;;;;;24.88;4.10;;;15.40;99.30;;;;;;5006248;28;20018;-68
2022/05/23 06:21:13;;;;;;;15.60;3.13;;;15.50;99.30;;;;;;5003284;28;20026;-68
2022/05/23 06:23:41;;;;;;;20.27;2.83;;;15.50;98.30;;;;;;5006000;28;20034;-68
2022/05/23 06:26:06;;;;;;;20.63;3.50;;;15.40;98.40;;;;;;5005028;28;20030;-68
2022/05/23 06:28:34;;;;;;;13.55;3.17;;;15.40;98.50;;;;;;5005740;28;20034;-68
2022/05/23 06:31:00;;;;;;;11.38;3.17;;;15.30;98.70;;;;;;5020558;28;20018;-68
2022/05/23 06:33:26;;;;;;;12.48;3.03;;;15.20;98.10;;;;;;5005125;28;20048;-68
2022/05/23 06:35:52;;;;;;;18.80;3.78;;;15.10;98.40;;;;;;5004431;28;20031;-68
2022/05/23 06:38:17;;;;;;;16.73;3.35;;;15.20;98.50;;;;;;5006362;28;20134;-67
2022/05/23 06:40:43;;;;;;;14.35;3.25;;;15.30;98.50;;;;;;5005856;28;20018;-66
2022/05/23 06:43:09;;;;;;;8.45;2.67;;;15.20;98.50;;;;;;5004268;28;20082;-70
2022/05/23 06:45:35;;;;;;;13.80;3.33;;;14.90;98.50;;;;;;5005685;28;20049;-67
2022/05/23 06:48:01;;;;;;;18.05;3.83;;;15.00;98.90;;;;;;5005871;28;20041;-68
2022/05/23 06:50:27;;;;;;;18.50;3.85;;;15.00;98.70;;;;;;5005888;28;20364;-68
2022/05/23 06:52:53;;;;;;;16.77;4.35;;;14.90;98.70;;;;;;5004347;28;20309;-68
2022/05/23 06:55:18;;;;;;;9.95;3.08;;;15.00;98.50;;;;;;5005932;28;20026;-68
2022/05/23 06:57:44;;;;;;;17.40;3.05;;;15.00;98.30;;;;;;5005451;28;20030;-67
2022/05/23 07:00:10;;;;;;;15.73;3.42;;;15.00;98.10;;;;;;5005450;28;20034;-70
2022/05/23 07:02:37;;;;;;;10.52;3.33;;;15.00;98.10;;;;;;5004113;28;20201;-68
2022/05/23 07:13:20;;;;;;;16.98;3.63;;;15.20;98.50;;;;;;4997393;28;20305;-68
2022/05/23 07:15:47;;;;;;;12.05;3.63;;;15.20;98.10;;;;;;4985376;28;20033;-68
2022/05/23 07:18:14;;;;;;;13.90;4.07;;;15.20;98.10;;;;;;4997208;28;20019;-67
2022/05/23 07:20:41;;;;;;;10.55;3.05;;;15.30;98.20;;;;;;5002508;28;20030;-69
2022/05/23 07:23:07;;;;;;;12.40;3.33;;;15.60;97.90;;;;;;5000819;28;20027;-69
2022/05/23 07:25:33;;;;;;;15.20;3.30;;;15.70;97.30;;;;;;5003077;28;20057;-69
2022/05/23 07:27:59;;;;;;;24.77;3.33;;;15.80;97.30;;;;;;5002160;28;20053;-68
2022/05/23 07:30:25;;;;;;;7.50;3.33;;;15.90;97.20;;;;;;5002065;28;20092;-68
2022/05/23 07:32:50;;;;;;;11.07;3.03;;;16.10;96.70;;;;;;5004957;28;20026;-70
2022/05/23 07:35:17;;;;;;;17.10;2.95;;;16.40;96.20;;;;;;5015387;28;20033;-69
2022/05/23 07:37:43;;;;;;;10.25;3.17;;;16.60;95.50;;;;;;4986512;28;20042;-65
2022/05/23 07:40:10;;;;;;;12.32;2.95;;;16.60;95.40;;;;;;5004462;28;20090;-67
2022/05/23 07:42:36;;;;;;;14.65;2.60;;;16.60;95.30;;;;;;5002227;28;20023;-66
2022/05/23 07:45:04;;;;;;;12.63;3.03;;;16.60;95.30;;;;;;5002812;28;20116;-68
2022/05/23 07:47:29;;;;;;;13.27;2.25;;;16.60;95.20;;;;;;5002837;28;20026;-69
2022/05/23 07:49:55;;;;;;;15.85;2.67;;;16.50;93.90;;;;;;5007790;28;20018;-68
2022/05/23 07:52:21;;;;;;;7.47;1.95;;;16.40;93.30;;;;;;5009293;28;20037;-69
2022/05/23 08:00:33;;;;;;;8.35;2.20;;;16.20;94.10;;;;;;5016223;28;20061;-66
2022/05/23 08:03:04;;;;;;;11.57;2.33;;;16.40;93.90;;;;;;5003642;28;20029;-67
2022/05/23 08:05:30;;;;;;;6.80;1.80;;;16.50;94.10;;;;;;5002262;28;20034;-67
2022/05/23 08:07:56;;;;;;;8.75;1.85;;;16.60;93.50;;;;;;5003093;28;20026;-67
2022/05/23 08:10:24;;;;;;;10.85;1.98;;;16.70;92.90;;;;;;5003661;28;20022;-66
2022/05/23 08:12:52;;;;;;;7.03;1.98;;;16.70;92.50;;;;;;5003409;28;20033;-66
2022/05/23 08:15:19;;;;;;;5.43;1.85;;;16.70;92.30;;;;;;5002663;28;20030;-68
2022/05/23 08:17:45;;;;;;;5.22;1.60;;;16.70;92.60;;;;;;5003600;28;20022;-67
2022/05/23 08:20:12;;;;;;;7.18;2.10;;;16.80;92.40;;;;;;5018810;28;20024;-68
2022/05/23 08:22:38;;;;;;;11.27;2.28;;;17.00;92.00;;;;;;5003379;28;20036;-69
2022/05/23 08:25:05;;;;;;;6.57;2.60;;;17.00;92.10;;;;;;5001307;28;20042;-68
2022/05/23 08:27:31;;;;;;;9.90;2.42;;;17.10;91.70;;;;;;5031146;28;20101;-68
2022/05/23 08:29:56;;;;;;;7.90;2.67;;;17.10;91.80;;;;;;5023711;28;20029;-68
2022/05/23 08:32:22;;;;;;;5.40;2.70;;;17.20;91.20;;;;;;5022952;28;20041;-67
2022/05/23 08:34:48;;;;;;;5.82;2.65;;;17.10;90.90;;;;;;5023106;28;20026;-69
2022/05/23 08:37:14;;;;;;;7.15;3.00;;;17.10;91.40;;;;;;5022062;28;20053;-70
2022/05/23 08:39:40;;;;;;;7.38;2.55;;;17.00;91.30;;;;;;5023166;28;20030;-67
2022/05/23 08:42:24;;;;;;;7.85;2.75;;;17.10;91.60;;;;;;5005787;28;20092;-68
2022/05/23 08:45:15;;;;;;;7.38;2.60;;;17.30;92.10;;;;;;5003305;28;20290;-68
2022/05/23 08:48:08;;;;;;;6.63;2.60;;;17.50;90.70;;;;;;5004749;28;20026;-67
2022/05/23 08:50:59;;;;;;;3.42;2.10;;;17.60;90.60;;;;;;5009236;28;20034;-69
2022/05/23 08:53:33;;;;;;;10.10;2.60;;;17.60;90.20;;;;;;5005991;28;20321;-68
2022/05/23 08:56:09;;;;;;;10.50;2.95;;;17.70;90.50;;;;;;5005560;28;20022;-70
2022/05/23 08:58:48;;;;;;;5.47;2.55;;;17.90;90.20;;;;;;5007258;28;20313;-69
2022/05/23 09:01:21;;;;;;;9.02;3.13;;;18.20;90.00;;;;;;4993538;28;20051;-71
2022/05/23 09:04:06;;;;;;;9.80;2.85;;;18.10;89.50;;;;;;5000082;28;20026;-69
2022/05/23 09:06:39;;;;;;;10.57;2.90;;;18.10;90.00;;;;;;5007218;28;20034;-69
2022/05/23 09:09:07;;;;;;;10.13;2.97;;;18.10;89.30;;;;;;5022274;28;20033;-68
2022/05/23 09:11:38;;;;;;;7.15;2.80;;;18.20;89.60;;;;;;5006985;28;20029;-67
2022/05/23 09:14:07;;;;;;;7.72;2.53;;;18.30;89.20;;;;;;5005626;28;20026;-69
2022/05/23 09:16:40;;;;;;;7.82;2.92;;;18.30;88.30;;;;;;5007078;28;20096;-66
2022/05/23 09:19:42;;;;;;;8.65;3.22;;;18.30;89.10;;;;;;5005873;28;20018;-69
2022/05/23 09:22:18;;;;;;;11.30;2.90;;;18.30;89.60;;;;;;5006878;28;20085;-70
2022/05/23 09:24:51;;;;;;;9.00;2.65;;;18.50;89.40;;;;;;5004812;28;20046;-68
2022/05/23 09:27:35;;;;;;;7.28;3.20;;;18.50;88.10;;;;;;5007002;28;20026;-68
2022/05/23 09:30:03;;;;;;;4.60;2.40;;;18.30;88.00;;;;;;5005892;28;20034;-66
2022/05/23 09:32:38;;;;;;;10.63;3.63;;;18.20;88.10;;;;;;5006644;28;20065;-69
2022/05/23 09:35:26;;;;;;;10.77;2.83;;;18.10;89.40;;;;;;5005127;28;20186;-68
2022/05/23 09:38:27;;;;;;;8.02;2.90;;;18.00;89.00;;;;;;5005585;28;20036;-68
2022/05/23 09:40:54;;;;;;;5.28;2.50;;;17.60;90.10;;;;;;5005705;28;20124;-69
2022/05/23 09:49:20;;;;;;;11.05;3.17;;;17.70;91.30;;;;;;5019210;28;20026;-68
2022/05/23 09:52:25;;;;;;;13.35;2.97;;;17.50;91.00;;;;;;5005298;28;20245;-69
2022/05/23 09:54:56;;;;;;;12.63;3.30;;;17.50;91.00;;;;;;5005492;28;20064;-69
2022/05/23 09:57:28;;;;;;;13.30;4.07;;;17.40;91.60;;;;;;5005827;28;20069;-68
2022/05/23 10:00:07;;;;;;;9.73;2.53;;;17.50;91.40;;;;;;5005322;28;20030;-68
2022/05/23 10:02:47;;;;;;;6.97;2.45;;;17.80;91.00;;;;;;5004801;28;20350;-68
2022/05/23 10:05:34;;;;;;;12.00;2.58;;;17.80;90.70;;;;;;5020842;28;20217;-67
2022/05/23 10:08:08;;;;;;;13.32;3.78;;;17.70;90.30;;;;;;5008065;28;20026;-69
2022/05/23 10:10:37;;;;;;;9.48;2.33;;;17.50;90.90;;;;;;5005043;28;20053;-67
2022/05/23 10:13:33;;;;;;;14.13;2.47;;;17.40;90.60;;;;;;5005825;28;20053;-69
2022/05/23 10:16:01;;;;;;;14.32;2.05;;;17.50;90.90;;;;;;5004634;28;20030;-68
2022/05/23 10:18:31;;;;;;;7.85;1.58;;;17.60;91.50;;;;;;5004922;28;20022;-68
2022/05/23 10:20:58;;;;;;;11.27;1.65;;;17.60;91.90;;;;;;5006018;28;20081;-69
2022/05/23 10:23:30;;;;;;;8.07;1.60;;;17.70;91.80;;;;;;5004761;28;20086;-68
2022/05/23 10:26:18;;;;;;;10.52;1.80;;;17.60;91.70;;;;;;5003783;28;20094;-68
2022/05/23 10:28:55;;;;;;;12.90;1.48;;;17.60;92.20;;;;;;4998205;28;20034;-69
2022/05/23 10:31:43;;;;;;;8.52;1.67;;;17.70;91.80;;;;;;5000366;28;20094;-69
2022/05/23 10:34:33;;;;;;;12.48;2.05;;;17.80;91.60;;;;;;4997826;28;20052;-68
2022/05/23 10:37:01;;;;;;;7.82;1.30;;;17.80;91.50;;;;;;4998934;28;20086;-68
2022/05/23 10:42:52;;;;;;;8.43;1.20;;;17.80;90.70;;;;;;4991337;28;20030;-71
2022/05/23 10:45:47;;;;;;;3.00;1.15;;;18.00;90.00;;;;;;5004016;28;20034;-69
2022/05/23 10:48:42;;;;;;;6.60;1.48;;;18.00;89.30;;;;;;5004497;28;20026;-69
2022/05/23 10:51:18;;;;;;;4.97;1.10;;;18.00;88.60;;;;;;5004884;28;20030;-68
2022/05/23 10:54:16;;;;;;;4.38;1.10;;;18.00;87.50;;;;;;5004032;28;20037;-69
2022/05/23 10:57:21;;;;;;;5.53;0.85;;;17.90;88.50;;;;;;5004090;28;20060;-67
2022/05/23 11:00:01;;;;;;;5.18;0.80;;;17.90;89.30;;;;;;5004724;28;20322;-68
2022/05/23 11:02:41;;;;;;;5.13;1.27;;;18.10;89.10;;;;;;5004930;28;20080;-69
2022/05/23 11:05:47;;;;;;;7.20;1.30;;;17.90;87.70;;;;;;5004341;28;20046;-69
2022/05/23 11:08:28;;;;;;;10.93;1.70;;;17.90;90.00;;;;;;4986943;28;20030;-70
2022/05/23 11:11:20;;;;;;;6.70;1.58;;;18.00;89.60;;;;;;4984643;28;20018;-67
2022/05/23 11:14:03;;;;;;;11.43;1.85;;;17.90;90.20;;;;;;4997905;28;20033;-67
2022/05/23 11:16:56;;;;;;;7.28;1.33;;;18.00;90.60;;;;;;4984978;28;20106;-69
2022/05/23 11:19:47;;;;;;;5.55;1.38;;;18.10;90.20;;;;;;4996987;28;20070;-70
2022/05/23 11:22:20;;;;;;;5.47;0.83;;;18.00;90.20;;;;;;5003528;28;20026;-70
2022/05/23 11:25:26;;;;;;;4.60;0.80;;;18.00;90.60;;;;;;5004152;28;20275;-68
2022/05/23 11:34:21;;;;;;;4.82;0.98;;;17.90;90.70;;;;;;5036727;28;20333;-69
2022/05/23 11:39:51;;;;;;;8.98;1.20;;;17.30;91.70;;;;;;5036927;28;20348;-70
2022/05/23 11:42:56;;;;;;;8.02;1.05;;;17.10;92.40;;;;;;5003987;28;20026;-69
2022/05/23 11:48:47;;;;;;;12.95;1.17;;;16.90;92.90;;;;;;4990219;28;20037;-69
2022/05/23 11:51:37;;;;;;;6.45;0.82;;;17.00;92.70;;;;;;5003351;28;20085;-70
2022/05/23 11:54:26;;;;;;;6.88;0.85;;;17.20;92.60;;;;;;5003106;28;20026;-69
2022/05/23 11:57:14;;;;;;;9.70;1.60;;;17.40;92.20;;;;;;5002992;28;20089;-69
2022/05/23 12:00:01;;;;;;;9.93;1.02;;;17.70;92.00;;;;;;5002816;28;20030;-68
2022/05/23 12:02:27;;;;;;;8.23;1.27;;;18.00;90.80;;;;;;5002535;28;20092;-68
2022/05/23 12:05:12;;;;;;;7.60;1.00;;;17.80;91.20;;;;;;5002218;28;20325;-68
2022/05/23 12:07:59;;;;;;;5.72;1.10;;;17.80;91.10;;;;;;5002683;28;20090;-69
2022/05/23 12:10:41;;;;;;;5.68;0.80;;;17.70;91.30;;;;;;5002749;28;20029;-72
2022/05/23 12:13:35;;;;;;;6.05;1.15;;;17.70;91.60;;;;;;5003284;28;20061;-68
2022/05/23 12:16:22;;;;;;;4.57;0.77;;;17.90;91.60;;;;;;5002554;28;20209;-70
2022/05/23 12:18:49;;;;;;;4.65;1.45;;;18.10;90.90;;;;;;5003641;28;20018;-71
2022/05/23 12:21:39;;;;;;;6.57;1.20;;;18.20;90.20;;;;;;5018496;28;20238;-70
2022/05/23 12:24:30;;;;;;;13.30;1.02;;;18.30;90.70;;;;;;5002540;28;20049;-70
2022/05/23 12:26:59;;;;;;;5.75;1.05;;;18.60;90.10;;;;;;5002166;28;20033;-71
2022/05/23 12:29:30;;;;;;;7.70;1.17;;;18.70;90.00;;;;;;5000683;28;20026;-70
2022/05/23 12:32:21;;;;;;;6.28;1.40;;;18.80;87.80;;;;;;5002782;28;20313;-71
2022/05/23 12:34:49;;;;;;;7.22;1.08;;;18.70;88.80;;;;;;5001492;28;20034;-70
2022/05/23 12:37:26;;;;;;;6.50;1.17;;;18.60;89.70;;;;;;5002318;28;20081;-70
2022/05/23 12:40:18;;;;;;;4.82;1.08;;;18.60;90.00;;;;;;5003625;28;20108;-69
2022/05/23 12:43:10;;;;;;;7.78;1.63;;;18.90;89.10;;;;;;4983924;28;20039;-69
2022/05/23 12:45:54;;;;;;;;;;;18.90;88.10;;;;;;5001318;28;20061;-68
2022/05/23 12:48:59;;;;;;;8.73;1.27;;;18.80;88.50;;;;;;5018498;28;19905;-70
2022/05/23 12:52:03;;;;;;;6.05;1.15;;;18.60;88.80;;;;;;5005260;28;20316;-71
2022/05/23 12:55:08;;;;;;;6.78;1.30;;;18.60;90.00;;;;;;5004378;28;20045;-71
2022/05/23 12:58:14;;;;;;;4.88;1.10;;;18.80;88.80;;;;;;5002695;28;20189;-71
2022/05/23 13:00:46;;;;;;;7.35;1.27;;;18.80;87.00;;;;;;5002208;28;20287;-70
2022/05/23 13:03:26;;;;;;;8.68;1.40;;;18.80;87.10;;;;;;5003400;28;20339;-68
2022/05/23 13:05:58;;;;;;;5.22;1.60;;;18.60;87.40;;;;;;5002723;28;20034;-68
2022/05/23 13:08:44;;;;;;;7.32;1.20;;;18.40;89.30;;;;;;5004178;28;20376;-68
2022/05/23 13:11:16;;;;;;;5.82;1.30;;;18.20;89.60;;;;;;5003689;28;20034;-70
2022/05/23 13:13:45;;;;;;;7.70;1.65;;;17.80;90.20;;;;;;5003177;28;20310;-69
2022/05/23 13:16:29;;;;;;;9.70;1.42;;;17.90;90.40;;;;;;5003674;28;20034;-69
2022/05/23 13:22:05;;;;;;;8.50;1.30;;;18.00;90.30;;;;;;5002315;28;20029;-70
2022/05/23 13:24:48;;;;;;;4.18;1.15;;;18.00;90.20;;;;;;5001924;28;20022;-69
2022/05/23 13:27:20;;;;;;;7.78;1.10;;;18.00;90.80;;;;;;4991557;28;20094;-69
2022/05/23 13:29:50;;;;;;;;;;;17.80;91.10;;;;;;4998056;28;20241;-68
2022/05/23 13:32:17;;;;;;;5.28;1.50;;;17.80;91.20;;;;;;5002572;28;19940;-69
2022/05/23 13:34:44;;;;;;;3.88;1.10;;;17.90;91.30;;;;;;5006248;28;20041;-67
2022/05/23 13:37:22;;;;;;;7.90;1.20;;;18.20;90.80;;;;;;5021574;28;20046;-69
2022/05/23 13:39:50;;;;;;;4.38;0.90;;;18.40;90.40;;;;;;5011265;28;20044;-68
2022/05/23 13:42:23;;;;;;;8.85;1.20;;;18.60;90.10;;;;;;5005994;28;20026;-69
2022/05/23 13:44:49;;;;;;;6.40;1.08;;;18.70;87.80;;;;;;5005405;28;20387;-70
2022/05/23 13:47:32;;;;;;;11.98;1.35;;;18.70;87.50;;;;;;5005992;28;20122;-70
2022/05/23 13:50:06;;;;;;;5.95;0.90;;;18.60;86.80;;;;;;5005561;28;20135;-69
2022/05/23 13:52:40;;;;;;;5.22;1.00;;;18.70;86.70;;;;;;5006082;28;20022;-71
2022/05/23 13:55:13;;;;;;;4.60;0.93;;;18.60;87.40;;;;;;5006581;28;20094;-70
2022/05/23 13:57:47;;;;;;;3.40;0.77;;;18.90;86.50;;;;;;5005087;28;20045;-70
2022/05/23 14:00:20;;;;;;;3.60;0.93;;;18.90;86.20;;;;;;5005104;28;20018;-69
2022/05/23 14:02:52;;;;;;;8.65;1.23;;;18.60;86.90;;;;;;5006139;28;20058;-71
2022/05/23 14:05:20;;;;;;;6.22;1.10;;;18.40;87.50;;;;;;5005784;28;20022;-70
2022/05/23 14:07:47;;;;;;;4.88;0.90;;;18.40;87.60;;;;;;5006020;28;20049;-69
2022/05/23 14:10:22;;;;;;;5.38;0.88;;;18.40;87.30;;;;;;5005805;28;20026;-68
2022/05/23 14:12:49;;;;;;;9.88;1.20;;;18.10;88.90;;;;;;5003834;28;20057;-69
2022/05/23 14:15:21;;;;;;;5.88;1.10;;;18.30;89.40;;;;;;4986552;28;20229;-71